createdAt,value
2018-07-04T00:04:06.465Z,2.20
2018-07-04T00:08:20.837Z,2.33
2018-07-04T00:12:35.521Z,2.57
2018-07-04T00:16:50.196Z,1.70
2018-07-04T00:21:04.686Z,2.43
2018-07-04T00:25:19.201Z,1.90
2018-07-04T00:29:33.709Z,4.03
2018-07-04T00:33:48.170Z,2.17
2018-07-04T00:38:02.753Z,1.80
2018-07-04T00:42:17.332Z,3.73
2018-07-04T00:46:31.781Z,1.90
2018-07-04T00:50:46.484Z,2.37
2018-07-04T00:55:01.152Z,1.63
2018-07-04T00:59:15.827Z,2.80
2018-07-04T01:03:30.245Z,1.73
2018-07-04T01:07:44.848Z,2.17
2018-07-04T01:11:59.403Z,2.73
2018-07-04T01:16:14.048Z,1.90
2018-07-04T01:20:33.012Z,2.17
2018-07-04T01:24:47.721Z,1.63
2018-07-04T01:29:02.189Z,1.87
2018-07-04T01:33:16.764Z,2.47
2018-07-04T01:37:31.381Z,3.30
2018-07-04T01:41:46.021Z,2.53
2018-07-04T01:46:00.623Z,2.23
2018-07-04T01:50:15.257Z,1.70
2018-07-04T01:54:29.845Z,2.93
2018-07-04T01:58:44.453Z,3.43
2018-07-04T02:02:59.001Z,3.57
2018-07-04T02:07:07.450Z,4.67
2018-07-04T02:11:22.117Z,6.73
2018-07-04T02:15:36.796Z,2.43
2018-07-04T02:19:51.457Z,2.97
2018-07-04T02:24:05.994Z,1.90
2018-07-04T02:28:20.520Z,3.07
2018-07-04T02:32:35.109Z,2.00
2018-07-04T02:36:49.547Z,3.47
2018-07-04T02:41:04.260Z,2.40
2018-07-04T02:45:18.816Z,2.30
2018-07-04T02:49:33.303Z,5.47
2018-07-04T02:53:47.910Z,2.27
2018-07-04T02:58:02.298Z,2.57
2018-07-04T03:02:17.014Z,2.40
2018-07-04T03:06:31.658Z,6.30
2018-07-04T03:10:46.185Z,8.67
2018-07-04T03:15:00.849Z,3.50
2018-07-04T03:19:09.431Z,2.73
2018-07-04T03:23:24.085Z,2.93
2018-07-04T03:27:38.577Z,2.43
2018-07-04T03:31:53.791Z,2.60
2018-07-04T03:36:08.455Z,3.03
2018-07-04T03:40:23.009Z,2.50
2018-07-04T03:44:37.813Z,3.97
2018-07-04T03:48:52.447Z,4.50
2018-07-04T03:53:06.872Z,4.80
2018-07-04T03:57:21.497Z,2.87
2018-07-04T04:01:36.134Z,3.23
2018-07-04T04:05:50.874Z,10.57
2018-07-04T04:10:05.712Z,4.03
2018-07-04T04:14:20.352Z,2.23
2018-07-04T04:18:34.925Z,1.80
2018-07-04T04:22:49.580Z,2.00
2018-07-04T04:27:04.119Z,3.73
2018-07-04T04:31:18.756Z,2.03
2018-07-04T04:35:33.357Z,2.10
2018-07-04T04:39:47.893Z,1.80
2018-07-04T04:44:02.595Z,3.10
2018-07-04T04:48:17.324Z,2.27
2018-07-04T04:52:31.929Z,2.73
2018-07-04T04:56:46.565Z,2.20
2018-07-04T05:01:01.173Z,2.87
2018-07-04T05:05:15.606Z,2.47
2018-07-04T05:09:30.309Z,2.50
2018-07-04T05:13:45.113Z,3.23
2018-07-04T05:17:53.737Z,2.57
2018-07-04T05:22:08.429Z,2.67
2018-07-04T05:26:23.112Z,6.07
2018-07-04T05:30:37.516Z,3.50
2018-07-04T05:34:52.285Z,2.60
2018-07-04T05:39:06.762Z,2.10
2018-07-04T05:43:21.326Z,3.00
2018-07-04T05:47:36.147Z,5.03
2018-07-04T05:51:50.766Z,4.47
2018-07-04T05:56:05.340Z,6.83
2018-07-04T06:00:19.999Z,2.17
2018-07-04T06:04:34.741Z,3.53
2018-07-04T06:08:49.511Z,2.67
2018-07-04T06:12:58.011Z,5.03
2018-07-04T06:17:12.673Z,4.50
2018-07-04T06:21:27.388Z,4.40
2018-07-04T06:25:42.521Z,3.80
2018-07-04T06:29:57.016Z,2.90
2018-07-04T06:34:11.804Z,4.62
2018-07-04T06:38:14.264Z,2.85
2018-07-04T06:42:16.472Z,2.83
2018-07-04T06:46:18.921Z,4.37
2018-07-04T06:50:21.135Z,2.33
2018-07-04T06:54:23.605Z,3.95
2018-07-04T06:58:25.804Z,2.95
2018-07-04T07:02:28.253Z,2.42
2018-07-04T07:06:42.944Z,2.50
2018-07-04T07:10:57.562Z,3.70
2018-07-04T07:15:12.408Z,4.67
2018-07-04T07:19:20.948Z,2.62
2018-07-04T07:23:35.594Z,5.90
2018-07-04T07:27:50.201Z,2.85
2018-07-04T07:32:04.875Z,4.60
2018-07-04T07:36:19.517Z,2.75
2018-07-04T07:40:34.050Z,2.40
2018-07-04T07:44:48.674Z,5.33
2018-07-04T07:48:57.360Z,2.70
2018-07-04T07:53:11.937Z,4.60
2018-07-04T07:57:26.656Z,5.37
2018-07-04T08:01:41.236Z,2.20
2018-07-04T08:05:55.963Z,2.05
2018-07-04T08:10:10.437Z,5.62
2018-07-04T08:14:24.989Z,3.85
2018-07-04T08:18:39.754Z,3.33
2018-07-04T08:22:54.365Z,4.97
2018-07-04T08:27:09.078Z,4.90
2018-07-04T08:31:23.749Z,3.92
2018-07-04T08:35:38.339Z,4.65
2018-07-04T08:39:52.981Z,1.85
2018-07-04T08:44:07.765Z,2.55
2018-07-04T08:48:22.436Z,5.60
2018-07-04T08:52:37.218Z,4.17
2018-07-04T08:56:51.877Z,4.83
2018-07-04T09:01:06.440Z,1.82
2018-07-04T09:05:21.022Z,3.83
2018-07-04T09:09:35.732Z,2.50
2018-07-04T09:13:50.423Z,5.55
2018-07-04T09:18:04.985Z,9.75
2018-07-04T09:22:19.649Z,19.30
2018-07-04T09:26:34.197Z,5.85
2018-07-04T09:30:48.863Z,9.35
2018-07-04T09:35:03.585Z,5.95
2018-07-04T09:39:12.060Z,10.63
2018-07-04T09:43:26.544Z,12.43
2018-07-04T09:47:41.134Z,16.73
2018-07-04T09:51:55.636Z,14.18
2018-07-04T09:56:10.370Z,10.05
2018-07-04T10:00:28.620Z,10.38
2018-07-04T10:04:43.113Z,12.03
2018-07-04T10:08:57.703Z,7.08
2018-07-04T10:13:12.336Z,9.45
2018-07-04T10:17:27.090Z,11.45
2018-07-04T10:21:41.480Z,4.85
2018-07-04T10:25:56.059Z,8.93
2018-07-04T10:30:10.480Z,11.60
2018-07-04T10:34:25.207Z,11.95
2018-07-04T10:38:39.975Z,10.82
2018-07-04T10:42:54.574Z,8.05
2018-07-04T10:47:09.366Z,7.97
2018-07-04T10:51:23.853Z,10.58
2018-07-04T10:55:38.342Z,8.13
2018-07-04T10:59:53.241Z,4.95
2018-07-04T11:04:07.733Z,4.45
2018-07-04T11:08:22.373Z,7.30
2018-07-04T11:12:37.041Z,4.75
2018-07-04T11:16:51.713Z,7.05
2018-07-04T11:21:06.276Z,4.90
2018-07-04T11:25:20.837Z,5.10
2018-07-04T11:29:35.556Z,8.05
2018-07-04T11:33:50.228Z,5.62
2018-07-04T11:38:04.766Z,5.03
2018-07-04T11:42:19.500Z,6.05
2018-07-04T11:46:21.697Z,3.72
2018-07-04T11:50:23.914Z,6.92
2018-07-04T11:54:26.113Z,3.10
2018-07-04T11:58:28.304Z,7.05
2018-07-04T12:02:30.509Z,6.12
2018-07-04T12:06:45.049Z,6.10
2018-07-04T12:10:47.729Z,5.40
2018-07-04T12:14:49.888Z,6.20
2018-07-04T12:18:52.071Z,5.55
2018-07-04T12:22:54.532Z,7.50
2018-07-04T12:26:56.788Z,7.80
2018-07-04T12:30:58.932Z,4.47
2018-07-04T12:35:01.126Z,4.87
2018-07-04T12:39:04.591Z,7.65
2018-07-04T12:43:06.785Z,4.83
2018-07-04T12:47:09.019Z,6.25
2018-07-04T12:51:11.227Z,4.25
2018-07-04T12:55:30.061Z,6.70
2018-07-04T12:59:44.641Z,5.60
2018-07-04T13:03:59.305Z,8.00
2018-07-04T13:08:13.990Z,5.37
2018-07-04T13:12:28.608Z,11.00
2018-07-04T13:16:37.291Z,7.28
2018-07-04T13:20:52.112Z,7.50
2018-07-04T13:25:06.750Z,4.78
2018-07-04T13:29:21.221Z,5.58
2018-07-04T13:33:36.016Z,5.53
2018-07-04T13:37:50.597Z,5.85
2018-07-04T13:42:05.257Z,11.03
2018-07-04T13:46:19.912Z,10.23
2018-07-04T13:50:34.588Z,4.70
2018-07-04T13:54:49.043Z,6.42
2018-07-04T13:59:04.137Z,5.60
2018-07-04T14:03:18.855Z,5.03
2018-07-04T14:07:33.365Z,4.67
2018-07-04T14:11:48.045Z,8.83
2018-07-04T14:16:02.503Z,5.25
2018-07-04T14:20:17.170Z,3.65
2018-07-04T14:24:31.830Z,5.50
2018-07-04T14:28:46.517Z,4.42
2018-07-04T14:33:01.093Z,3.45
2018-07-04T14:37:15.843Z,4.12
2018-07-04T14:41:30.445Z,4.60
2018-07-04T14:45:44.959Z,5.67
2018-07-04T14:49:59.589Z,3.67
2018-07-04T14:54:14.009Z,3.45
2018-07-04T14:58:28.633Z,4.83
2018-07-04T15:02:43.217Z,4.45
2018-07-04T15:06:57.936Z,3.35
2018-07-04T15:11:12.644Z,3.70
2018-07-04T15:15:27.280Z,5.70
2018-07-04T15:19:41.868Z,3.50
2018-07-04T15:23:56.482Z,3.85
2018-07-04T15:28:05.162Z,3.37
2018-07-04T15:32:19.809Z,5.03
2018-07-04T15:36:34.370Z,4.58
2018-07-04T15:40:48.921Z,4.95
2018-07-04T15:45:03.593Z,4.28
2018-07-04T15:49:18.966Z,5.75
2018-07-04T15:53:33.632Z,5.20
2018-07-04T15:57:48.265Z,3.60
2018-07-04T16:02:02.797Z,2.85
2018-07-04T16:06:11.467Z,3.87
2018-07-04T16:10:26.133Z,4.53
2018-07-04T16:14:40.848Z,3.85
2018-07-04T16:18:55.405Z,4.30
2018-07-04T16:23:10.189Z,7.45
2018-07-04T16:27:24.973Z,3.40
2018-07-04T16:31:39.589Z,3.47
2018-07-04T16:35:54.232Z,4.58
2018-07-04T16:40:08.765Z,3.47
2018-07-04T16:44:23.358Z,5.80
2018-07-04T16:48:38.961Z,3.30
2018-07-04T16:52:53.626Z,4.45
2018-07-04T16:57:08.380Z,4.28
2018-07-04T17:01:23.749Z,6.75
2018-07-04T17:05:38.498Z,4.22
2018-07-04T17:09:53.160Z,3.60
2018-07-04T17:14:07.740Z,6.00
2018-07-04T17:18:16.551Z,4.35
2018-07-04T17:22:31.221Z,6.30
2018-07-04T17:26:46.436Z,5.15
2018-07-04T17:31:01.178Z,4.67
2018-07-04T17:35:09.784Z,5.15
2018-07-04T17:39:24.662Z,4.67
2018-07-04T17:43:39.161Z,5.30
2018-07-04T17:47:53.859Z,5.30
2018-07-04T17:52:08.617Z,5.10
2018-07-04T17:56:17.155Z,6.30
2018-07-04T18:00:31.692Z,5.47
2018-07-04T18:04:46.645Z,4.53
2018-07-04T18:09:01.445Z,9.13
2018-07-04T18:13:16.091Z,7.53
2018-07-04T18:17:30.803Z,4.67
2018-07-04T18:21:45.425Z,4.20
2018-07-04T18:26:00.094Z,4.50
2018-07-04T18:30:15.626Z,6.53
2018-07-04T18:34:30.311Z,5.92
2018-07-04T18:38:44.943Z,4.37
2018-07-04T18:42:59.867Z,4.80
2018-07-04T18:47:14.382Z,5.00
2018-07-04T18:51:29.027Z,3.75
2018-07-04T18:55:43.779Z,4.37
2018-07-04T18:59:58.435Z,3.98
2018-07-04T19:04:13.496Z,5.12
2018-07-04T19:08:28.246Z,5.20
2018-07-04T19:12:44.299Z,5.60
2018-07-04T19:16:52.857Z,5.25
2018-07-04T19:21:08.055Z,5.17
2018-07-04T19:25:22.731Z,4.92
2018-07-04T19:29:37.285Z,5.10
2018-07-04T19:33:52.276Z,5.25
2018-07-04T19:38:06.877Z,4.90
2018-07-04T19:42:22.216Z,7.30
2018-07-04T19:46:36.677Z,6.65
2018-07-04T19:50:51.392Z,6.70
2018-07-04T19:55:06.288Z,4.65
2018-07-04T19:59:20.770Z,4.35
2018-07-04T20:03:35.433Z,4.92
2018-07-04T20:07:50.149Z,5.42
2018-07-04T20:12:04.947Z,4.90
2018-07-04T20:16:19.640Z,4.72
2018-07-04T20:20:34.127Z,7.47
2018-07-04T20:24:49.458Z,4.80
2018-07-04T20:28:58.409Z,7.05
2018-07-04T20:33:06.960Z,7.03
2018-07-04T20:37:21.860Z,5.60
2018-07-04T20:41:36.453Z,6.53
2018-07-04T20:45:45.081Z,5.70
2018-07-04T20:50:00.054Z,4.40
2018-07-04T20:54:14.593Z,5.03
2018-07-04T20:58:29.301Z,7.12
2018-07-04T21:02:44.312Z,4.97
2018-07-04T21:06:59.369Z,4.80
2018-07-04T21:11:16.789Z,5.05
2018-07-04T21:15:31.385Z,4.80
2018-07-04T21:19:46.016Z,7.05
2018-07-04T21:24:01.165Z,8.48
2018-07-04T21:28:15.849Z,5.78
2018-07-04T21:32:31.432Z,5.63
2018-07-04T21:36:46.041Z,6.40
2018-07-04T21:41:00.777Z,5.50
2018-07-04T21:45:15.473Z,5.43
2018-07-04T21:49:30.169Z,4.70
2018-07-04T21:53:45.028Z,6.83
2018-07-04T21:57:59.671Z,6.70
2018-07-04T22:02:14.634Z,4.80
2018-07-04T22:06:23.287Z,5.33
2018-07-04T22:10:38.188Z,8.47
2018-07-04T22:14:52.780Z,5.10
2018-07-04T22:19:07.630Z,5.23
2018-07-04T22:23:22.110Z,6.03
2018-07-04T22:27:37.683Z,4.50
2018-07-04T22:31:52.319Z,5.80
2018-07-04T22:36:00.996Z,6.37
2018-07-04T22:40:15.625Z,6.83
2018-07-04T22:44:30.253Z,4.73
2018-07-04T22:48:44.796Z,4.50
2018-07-04T22:52:59.284Z,4.57
2018-07-04T22:57:13.917Z,4.77
2018-07-04T23:01:28.550Z,4.80
2018-07-04T23:05:43.268Z,6.03
2018-07-04T23:09:58.003Z,6.67
2018-07-04T23:14:12.529Z,5.23
2018-07-04T23:18:27.264Z,5.03
2018-07-04T23:22:41.849Z,5.43
2018-07-04T23:26:56.579Z,5.10
2018-07-04T23:31:11.357Z,5.27
2018-07-04T23:35:25.918Z,5.30
2018-07-04T23:39:40.637Z,5.07
2018-07-04T23:43:55.476Z,8.07
2018-07-04T23:48:10.142Z,7.20
2018-07-04T23:52:24.921Z,6.87
2018-07-04T23:56:39.624Z,6.47
